createdAt,value
2018-09-14T00:02:19.221Z,0.50
2018-09-14T00:04:46.950Z,0.30
2018-09-14T00:07:14.834Z,0.50
2018-09-14T00:09:42.595Z,0.37
2018-09-14T00:12:10.364Z,0.30
2018-09-14T00:14:38.068Z,0.50
2018-09-14T00:17:06.327Z,0.20
2018-09-14T00:19:34.003Z,1.03
2018-09-14T00:22:01.698Z,1.93
2018-09-14T00:24:29.403Z,0.57
2018-09-14T00:26:57.160Z,0.70
2018-09-14T00:29:24.853Z,0.50
2018-09-14T00:31:52.540Z,0.20
2018-09-14T00:34:20.238Z,0.30
2018-09-14T00:36:47.923Z,0.20
2018-09-14T00:39:15.640Z,0.50
2018-09-14T00:41:43.366Z,0.30
2018-09-14T00:44:11.048Z,0.33
2018-09-14T00:46:38.743Z,0.30
2018-09-14T00:49:06.495Z,0.30
2018-09-14T00:51:34.228Z,0.40
2018-09-14T00:54:01.924Z,0.60
2018-09-14T00:56:29.667Z,0.40
2018-09-14T00:58:57.393Z,0.40
2018-09-14T01:01:25.076Z,0.30
2018-09-14T01:03:52.759Z,0.20
2018-09-14T01:06:20.800Z,0.40
2018-09-14T01:08:48.537Z,0.50
2018-09-14T01:11:16.235Z,0.20
2018-09-14T01:13:44.160Z,0.30
2018-09-14T01:16:11.892Z,0.20
2018-09-14T01:18:39.579Z,0.20
2018-09-14T01:21:07.293Z,0.43
2018-09-14T01:23:34.964Z,0.17
2018-09-14T01:26:02.681Z,0.40
2018-09-14T01:28:30.357Z,0.23
2018-09-14T01:30:58.119Z,0.40
2018-09-14T01:33:25.908Z,0.37
2018-09-14T01:35:59.040Z,0.60
2018-09-14T01:38:26.767Z,0.30
2018-09-14T01:40:54.419Z,0.20
2018-09-14T01:43:22.092Z,0.27
2018-09-14T01:45:49.774Z,1.43
2018-09-14T01:48:17.429Z,0.30
2018-09-14T01:50:45.177Z,0.30
2018-09-14T01:53:12.856Z,0.30
2018-09-14T01:55:40.532Z,0.13
2018-09-14T01:58:08.212Z,0.30
2018-09-14T02:00:35.905Z,0.40
2018-09-14T02:03:03.576Z,0.20
2018-09-14T02:05:31.243Z,0.30
2018-09-14T02:07:58.934Z,0.50
2018-09-14T02:10:26.576Z,0.20
2018-09-14T02:12:54.287Z,0.20
2018-09-14T02:15:21.961Z,0.10
2018-09-14T02:17:49.609Z,0.20
2018-09-14T02:20:18.565Z,0.40
2018-09-14T02:22:46.685Z,0.30
2018-09-14T02:25:14.362Z,0.20
2018-09-14T02:27:42.081Z,0.33
2018-09-14T02:30:09.780Z,0.20
2018-09-14T02:32:37.671Z,0.13
2018-09-14T02:35:05.432Z,0.53
2018-09-14T02:37:33.159Z,0.73
2018-09-14T02:40:01.077Z,0.80
2018-09-14T02:42:28.720Z,0.60
2018-09-14T02:44:56.429Z,0.70
2018-09-14T02:47:24.081Z,0.50
2018-09-14T02:49:51.849Z,0.87
2018-09-14T02:52:19.516Z,0.50
2018-09-14T02:54:47.278Z,0.40
2018-09-14T02:57:14.964Z,0.80
2018-09-14T02:59:42.619Z,0.80
2018-09-14T03:02:10.445Z,0.80
2018-09-14T03:04:38.097Z,0.60
2018-09-14T03:07:05.761Z,0.53
2018-09-14T03:09:33.461Z,0.50
2018-09-14T03:12:01.121Z,0.63
2018-09-14T03:14:28.790Z,0.40
2018-09-14T03:16:56.440Z,0.70
2018-09-14T03:19:24.155Z,0.50
2018-09-14T03:21:51.841Z,0.70
2018-09-14T03:24:19.560Z,0.77
2018-09-14T03:26:47.265Z,1.40
2018-09-14T03:29:14.929Z,0.70
2018-09-14T03:31:42.626Z,0.70
2018-09-14T03:34:10.306Z,0.70
2018-09-14T03:36:37.968Z,0.50
2018-09-14T03:39:08.047Z,0.50
2018-09-14T03:41:35.649Z,0.80
2018-09-14T03:44:03.377Z,0.60
2018-09-14T03:46:31.038Z,0.47
2018-09-14T03:48:58.691Z,0.60
2018-09-14T03:51:26.360Z,0.50
2018-09-14T03:53:54.026Z,0.47
2018-09-14T03:56:21.737Z,0.67
2018-09-14T03:58:49.400Z,0.70
2018-09-14T04:01:17.125Z,0.30
2018-09-14T04:03:44.750Z,0.50
2018-09-14T04:08:39.069Z,0.67
2018-09-14T04:11:06.726Z,0.90
2018-09-14T04:13:34.699Z,0.50
2018-09-14T04:16:02.450Z,0.60
2018-09-14T04:18:30.093Z,0.60
2018-09-14T04:20:57.753Z,0.50
2018-09-14T04:23:25.584Z,0.30
2018-09-14T04:25:53.240Z,0.60
2018-09-14T04:28:20.966Z,0.43
2018-09-14T04:30:48.636Z,0.60
2018-09-14T04:33:16.306Z,0.50
2018-09-14T04:35:44.038Z,0.50
2018-09-14T04:38:11.775Z,0.80
2018-09-14T04:40:39.512Z,0.70
2018-09-14T04:43:07.173Z,0.50
2018-09-14T04:45:34.998Z,0.80
2018-09-14T04:48:02.725Z,1.00
2018-09-14T04:50:30.368Z,0.50
2018-09-14T04:52:58.085Z,0.70
2018-09-14T04:55:25.769Z,0.70
2018-09-14T04:57:53.422Z,0.60
2018-09-14T05:00:21.088Z,0.80
2018-09-14T05:02:48.773Z,0.70
2018-09-14T05:05:16.491Z,0.73
2018-09-14T05:07:44.220Z,0.70
2018-09-14T05:10:11.880Z,1.70
2018-09-14T05:12:39.541Z,1.00
2018-09-14T05:15:07.240Z,0.77
2018-09-14T05:17:34.884Z,0.70
2018-09-14T05:20:02.572Z,0.60
2018-09-14T05:22:30.241Z,0.80
2018-09-14T05:24:58.036Z,0.90
2018-09-14T05:27:25.665Z,1.50
2018-09-14T05:29:53.465Z,1.60
2018-09-14T05:32:21.117Z,1.40
2018-09-14T05:34:48.828Z,1.27
2018-09-14T05:37:16.517Z,1.40
2018-09-14T05:39:44.149Z,1.10
2018-09-14T05:42:11.867Z,1.20
2018-09-14T05:44:39.540Z,1.47
2018-09-14T05:47:07.510Z,1.03
2018-09-14T05:49:35.245Z,1.10
2018-09-14T05:52:02.993Z,0.80
2018-09-14T05:54:30.755Z,0.90
2018-09-14T05:56:58.405Z,1.00
2018-09-14T05:59:26.090Z,0.70
2018-09-14T06:01:53.773Z,0.90
2018-09-14T06:04:21.461Z,0.43
2018-09-14T06:06:49.373Z,0.90
2018-09-14T06:09:17.036Z,1.07
2018-09-14T06:11:44.729Z,0.63
2018-09-14T06:14:12.442Z,0.80
2018-09-14T06:16:40.490Z,1.00
2018-09-14T06:19:08.217Z,0.70
2018-09-14T06:21:35.865Z,3.17
2018-09-14T06:24:03.558Z,6.80
2018-09-14T06:26:31.372Z,5.97
2018-09-14T06:28:59.057Z,4.43
2018-09-14T06:31:26.765Z,2.90
2018-09-14T06:33:54.554Z,1.83
2018-09-14T06:36:22.240Z,1.50
2018-09-14T06:38:49.990Z,1.27
2018-09-14T06:41:17.902Z,1.20
2018-09-14T06:43:45.584Z,0.90
2018-09-14T06:46:13.292Z,1.17
2018-09-14T06:48:41.023Z,1.60
2018-09-14T06:51:08.701Z,1.60
2018-09-14T06:53:36.399Z,1.77
2018-09-14T06:56:04.138Z,1.67
2018-09-14T06:58:31.793Z,1.50
2018-09-14T07:00:59.894Z,1.60
2018-09-14T07:03:27.560Z,1.40
2018-09-14T07:05:55.250Z,1.30
2018-09-14T07:08:22.975Z,1.30
2018-09-14T07:10:50.799Z,1.20
2018-09-14T07:13:18.630Z,1.37
2018-09-14T07:15:46.299Z,1.17
2018-09-14T07:18:14.177Z,2.00
2018-09-14T07:20:41.879Z,1.27
2018-09-14T07:23:09.622Z,1.40
2018-09-14T07:25:37.318Z,1.13
2018-09-14T07:28:05.051Z,1.10
2018-09-14T07:30:32.740Z,1.47
2018-09-14T07:33:00.479Z,0.80
2018-09-14T07:35:28.207Z,1.10
2018-09-14T07:37:55.895Z,0.80
2018-09-14T07:40:23.570Z,0.97
2018-09-14T07:42:51.261Z,1.03
2018-09-14T07:45:19.023Z,1.00
2018-09-14T07:47:46.738Z,1.00
2018-09-14T07:50:14.415Z,1.07
2018-09-14T07:52:42.116Z,1.10
2018-09-14T07:55:09.817Z,0.90
2018-09-14T07:57:37.547Z,1.10
2018-09-14T08:00:05.300Z,1.00
2018-09-14T08:02:32.963Z,1.07
2018-09-14T08:05:00.683Z,1.40
2018-09-14T08:07:28.372Z,1.10
2018-09-14T08:09:56.097Z,1.40
2018-09-14T08:12:23.789Z,2.73
2018-09-14T08:14:51.492Z,2.10
2018-09-14T08:17:19.272Z,4.90
2018-09-14T08:19:46.947Z,1.83
2018-09-14T08:22:14.676Z,0.80
2018-09-14T08:24:42.424Z,0.60
2018-09-14T08:27:10.299Z,0.67
2018-09-14T08:29:37.980Z,0.60
2018-09-14T08:32:06.100Z,0.50
2018-09-14T08:34:33.911Z,0.53
2018-09-14T08:37:01.591Z,0.40
2018-09-14T08:39:29.323Z,0.50
2018-09-14T08:41:57.056Z,0.50
2018-09-14T08:44:24.789Z,0.37
2018-09-14T08:46:52.535Z,0.53
2018-09-14T08:49:20.263Z,0.50
2018-09-14T08:51:47.961Z,0.60
2018-09-14T08:54:15.685Z,0.57
2018-09-14T08:56:43.411Z,0.67
2018-09-14T08:59:11.148Z,0.53
2018-09-14T09:01:38.925Z,0.70
2018-09-14T09:04:06.983Z,0.40
2018-09-14T09:06:34.707Z,0.30
2018-09-14T09:09:02.617Z,0.40
2018-09-14T09:11:30.384Z,0.73
2018-09-14T09:13:58.078Z,1.80
2018-09-14T09:16:25.783Z,6.63
2018-09-14T09:18:53.472Z,6.03
2018-09-14T09:21:21.201Z,5.30
2018-09-14T09:23:48.893Z,3.80
2018-09-14T09:26:16.607Z,2.23
2018-09-14T09:28:44.329Z,1.30
2018-09-14T09:31:12.020Z,1.10
2018-09-14T09:33:39.748Z,0.70
2018-09-14T09:36:07.441Z,0.87
2018-09-14T09:38:35.208Z,0.60
2018-09-14T09:41:02.923Z,0.63
2018-09-14T09:43:30.812Z,0.80
2018-09-14T09:45:58.423Z,0.60
2018-09-14T09:48:26.131Z,0.50
2018-09-14T09:50:53.947Z,0.60
2018-09-14T09:53:21.637Z,0.90
2018-09-14T09:55:49.358Z,0.53
2018-09-14T09:58:17.246Z,0.70
2018-09-14T10:00:50.767Z,0.70
2018-09-14T10:03:24.091Z,0.70
2018-09-14T10:05:57.242Z,1.13
2018-09-14T10:08:25.000Z,0.60
2018-09-14T10:10:52.685Z,1.00
2018-09-14T10:13:20.369Z,0.67
2018-09-14T10:15:48.073Z,0.50
2018-09-14T10:18:15.768Z,0.80
2018-09-14T10:20:43.510Z,0.47
2018-09-14T10:23:11.227Z,0.60
2018-09-14T10:25:38.916Z,0.70
2018-09-14T10:28:06.633Z,1.17
2018-09-14T10:30:34.351Z,1.00
2018-09-14T10:33:02.041Z,0.93
2018-09-14T10:35:29.781Z,1.10
2018-09-14T10:37:57.664Z,0.83
2018-09-14T10:40:25.481Z,1.67
2018-09-14T10:42:53.474Z,1.23
2018-09-14T10:45:21.298Z,1.00
2018-09-14T10:47:48.959Z,1.13
2018-09-14T10:50:16.721Z,1.10
2018-09-14T10:52:44.484Z,1.20
2018-09-14T10:55:12.256Z,1.23
2018-09-14T10:57:39.947Z,1.30
2018-09-14T11:00:07.719Z,0.87
2018-09-14T11:02:35.462Z,1.33
2018-09-14T11:05:03.229Z,1.30
2018-09-14T11:07:30.932Z,1.10
2018-09-14T11:09:58.638Z,1.30
2018-09-14T11:12:26.451Z,1.00
2018-09-14T11:14:54.159Z,0.80
2018-09-14T11:17:21.838Z,0.97
2018-09-14T11:19:49.560Z,0.90
2018-09-14T11:22:17.238Z,0.67
2018-09-14T11:24:45.074Z,1.10
2018-09-14T11:27:12.815Z,1.00
2018-09-14T11:29:40.501Z,0.70
2018-09-14T11:32:08.181Z,0.97
2018-09-14T11:34:35.917Z,0.90
2018-09-14T11:37:03.963Z,0.97
2018-09-14T11:39:31.655Z,1.00
2018-09-14T11:41:59.473Z,0.90
2018-09-14T11:44:27.272Z,0.87
2018-09-14T11:46:54.969Z,0.80
2018-09-14T11:49:22.688Z,0.80
2018-09-14T11:51:50.665Z,1.17
2018-09-14T11:54:18.504Z,0.80
2018-09-14T11:56:46.144Z,0.97
2018-09-14T11:59:13.891Z,0.60
2018-09-14T12:01:41.564Z,0.70
2018-09-14T12:04:09.226Z,0.70
2018-09-14T12:06:36.940Z,0.80
2018-09-14T12:09:07.514Z,0.87
2018-09-14T12:11:35.206Z,0.80
2018-09-14T12:14:03.015Z,0.60
2018-09-14T12:16:30.660Z,0.60
2018-09-14T12:18:58.385Z,0.63
2018-09-14T12:21:26.064Z,1.13
2018-09-14T12:23:53.765Z,0.70
2018-09-14T12:26:21.565Z,0.87
2018-09-14T12:28:49.239Z,0.80
2018-09-14T12:31:16.908Z,0.53
2018-09-14T12:33:44.661Z,0.67
2018-09-14T12:36:12.396Z,0.50
2018-09-14T12:38:40.095Z,0.63
2018-09-14T12:41:07.803Z,0.90
2018-09-14T12:43:35.524Z,0.90
2018-09-14T12:46:03.240Z,0.70
2018-09-14T12:48:30.947Z,0.87
2018-09-14T12:50:58.676Z,0.80
2018-09-14T12:53:26.358Z,1.13
2018-09-14T12:55:54.096Z,0.80
2018-09-14T12:58:21.771Z,0.60
2018-09-14T13:00:49.456Z,0.80
2018-09-14T13:03:17.207Z,1.47
2018-09-14T13:05:44.882Z,0.80
2018-09-14T13:08:12.636Z,1.53
2018-09-14T13:10:40.356Z,0.90
2018-09-14T13:13:08.131Z,0.97
2018-09-14T13:15:35.850Z,1.30
2018-09-14T13:18:03.577Z,1.17
2018-09-14T13:20:31.248Z,1.00
2018-09-14T13:22:59.124Z,0.90
2018-09-14T13:25:26.807Z,0.90
2018-09-14T13:27:54.548Z,0.90
2018-09-14T13:30:22.271Z,0.97
2018-09-14T13:32:51.910Z,1.27
2018-09-14T13:35:21.230Z,1.00
2018-09-14T13:37:49.136Z,1.00
2018-09-14T13:40:16.814Z,1.00
2018-09-14T13:42:44.533Z,1.20
2018-09-14T13:45:12.245Z,1.00
2018-09-14T13:47:39.961Z,1.10
2018-09-14T13:50:07.661Z,1.10
2018-09-14T13:52:35.372Z,1.03
2018-09-14T13:55:03.161Z,1.00
2018-09-14T13:57:30.860Z,1.40
2018-09-14T13:59:58.621Z,1.37
2018-09-14T14:02:26.667Z,1.53
2018-09-14T14:04:54.400Z,1.10
2018-09-14T14:07:22.100Z,1.30
2018-09-14T14:09:49.946Z,1.33
2018-09-14T14:12:17.864Z,1.30
2018-09-14T14:14:45.575Z,1.23
2018-09-14T14:17:13.258Z,1.27
2018-09-14T14:19:40.979Z,0.90
2018-09-14T14:22:08.653Z,1.00
2018-09-14T14:24:36.358Z,0.70
2018-09-14T14:27:04.095Z,1.03
2018-09-14T14:29:31.789Z,1.00
2018-09-14T14:31:59.544Z,1.17
2018-09-14T14:34:27.254Z,0.70
2018-09-14T14:36:54.969Z,1.20
2018-09-14T14:39:22.681Z,0.70
2018-09-14T14:41:50.467Z,0.90
2018-09-14T14:44:18.204Z,1.23
2018-09-14T14:46:45.891Z,1.03
2018-09-14T14:49:13.660Z,0.97
2018-09-14T14:51:41.361Z,1.00
2018-09-14T14:54:09.104Z,0.87
2018-09-14T14:56:36.777Z,0.93
2018-09-14T14:59:04.464Z,0.90
2018-09-14T15:01:32.220Z,0.77
2018-09-14T15:03:59.927Z,0.83
2018-09-14T15:06:27.614Z,0.90
2018-09-14T15:08:55.340Z,0.67
2018-09-14T15:11:23.008Z,1.40
2018-09-14T15:13:50.668Z,1.00
2018-09-14T15:16:18.347Z,0.97
2018-09-14T15:18:46.008Z,0.70
2018-09-14T15:21:13.711Z,0.73
2018-09-14T15:23:41.396Z,0.60
2018-09-14T15:26:09.092Z,0.80
2018-09-14T15:28:36.816Z,0.80
2018-09-14T15:31:04.504Z,0.83
2018-09-14T15:33:32.164Z,1.10
2018-09-14T15:36:00.391Z,0.93
2018-09-14T15:38:28.071Z,0.90
2018-09-14T15:40:56.949Z,1.10
2018-09-14T15:46:01.012Z,0.80
2018-09-14T15:48:28.736Z,0.80
2018-09-14T15:50:56.461Z,0.87
2018-09-14T15:53:24.175Z,0.87
2018-09-14T15:55:51.842Z,0.83
2018-09-14T15:58:19.510Z,0.90
2018-09-14T16:00:47.316Z,0.60
2018-09-14T16:03:14.988Z,1.03
2018-09-14T16:05:42.715Z,1.00
2018-09-14T16:08:10.529Z,0.80
2018-09-14T16:10:38.212Z,0.90
2018-09-14T16:13:05.925Z,1.10
2018-09-14T16:15:33.692Z,0.83
2018-09-14T16:18:01.371Z,0.90
2018-09-14T16:20:29.067Z,0.97
2018-09-14T16:22:56.783Z,1.20
2018-09-14T16:25:24.471Z,0.80
2018-09-14T16:27:52.146Z,0.80
2018-09-14T16:30:19.852Z,0.70
2018-09-14T16:32:47.552Z,1.37
2018-09-14T16:35:15.233Z,1.10
2018-09-14T16:37:42.898Z,0.87
2018-09-14T16:40:10.596Z,1.07
2018-09-14T16:42:38.341Z,0.93
2018-09-14T16:45:06.126Z,0.70
2018-09-14T16:47:33.876Z,1.07
2018-09-14T16:50:01.582Z,1.97
2018-09-14T16:52:29.339Z,1.20
2018-09-14T16:54:57.136Z,0.93
2018-09-14T16:57:25.184Z,1.20
2018-09-14T16:59:52.889Z,0.77
2018-09-14T17:02:20.580Z,1.00
2018-09-14T17:04:48.280Z,0.70
2018-09-14T17:07:15.988Z,0.63
2018-09-14T17:09:43.691Z,0.80
2018-09-14T17:12:11.357Z,0.80
2018-09-14T17:14:39.114Z,0.80
2018-09-14T17:17:06.891Z,0.93
2018-09-14T17:19:35.150Z,0.80
2018-09-14T17:22:02.953Z,1.20
2018-09-14T17:24:30.685Z,0.80
2018-09-14T17:26:58.410Z,0.80
2018-09-14T17:29:26.115Z,0.87
2018-09-14T17:31:53.779Z,1.20
2018-09-14T17:34:21.460Z,1.03
2018-09-14T17:36:49.128Z,1.10
2018-09-14T17:39:16.804Z,0.90
2018-09-14T17:41:44.481Z,1.17
2018-09-14T17:44:12.196Z,1.67
2018-09-14T17:46:39.884Z,0.90
2018-09-14T17:49:07.704Z,1.27
2018-09-14T17:51:35.400Z,1.80
2018-09-14T17:54:03.111Z,2.67
2018-09-14T17:56:30.783Z,2.80
2018-09-14T17:58:58.464Z,3.13
2018-09-14T18:01:26.205Z,5.00
2018-09-14T18:03:53.873Z,4.80
2018-09-14T18:06:21.536Z,6.23
2018-09-14T18:08:49.467Z,6.03
2018-09-14T18:11:17.164Z,6.23
2018-09-14T18:13:44.984Z,5.43
2018-09-14T18:16:12.690Z,6.13
2018-09-14T18:18:40.511Z,5.93
2018-09-14T18:21:08.215Z,5.57
2018-09-14T18:23:35.920Z,5.60
2018-09-14T18:26:03.599Z,4.77
2018-09-14T18:28:31.338Z,4.30
2018-09-14T18:30:59.020Z,3.53
2018-09-14T18:33:26.745Z,3.53
2018-09-14T18:35:54.479Z,3.47
2018-09-14T18:38:22.164Z,2.97
2018-09-14T18:40:49.903Z,3.10
2018-09-14T18:43:17.577Z,3.73
2018-09-14T18:45:45.277Z,2.90
2018-09-14T18:48:12.978Z,2.80
2018-09-14T18:50:40.647Z,3.40
2018-09-14T18:53:08.401Z,2.00
2018-09-14T18:55:36.104Z,2.03
2018-09-14T18:58:03.897Z,2.07
2018-09-14T19:00:31.617Z,1.43
2018-09-14T19:02:59.277Z,1.73
2018-09-14T19:05:27.042Z,1.90
2018-09-14T19:07:54.736Z,2.03
2018-09-14T19:10:22.476Z,2.70
2018-09-14T19:12:50.135Z,3.30
2018-09-14T19:15:17.833Z,2.33
2018-09-14T19:17:45.672Z,1.90
2018-09-14T19:20:13.351Z,1.47
2018-09-14T19:22:41.042Z,1.53
2018-09-14T19:25:08.775Z,1.67
2018-09-14T19:27:36.472Z,3.33
2018-09-14T19:30:04.361Z,2.00
2018-09-14T19:32:32.072Z,1.17
2018-09-14T19:34:59.799Z,1.33
2018-09-14T19:37:27.460Z,1.13
2018-09-14T19:39:55.228Z,1.13
2018-09-14T19:42:23.041Z,1.00
2018-09-14T19:44:50.720Z,1.20
2018-09-14T19:47:18.449Z,1.90
2018-09-14T19:49:46.116Z,1.53
2018-09-14T19:52:13.788Z,1.37
2018-09-14T19:54:41.508Z,1.00
2018-09-14T19:57:09.196Z,1.33
2018-09-14T19:59:36.904Z,0.90
2018-09-14T20:02:04.677Z,1.00
2018-09-14T20:04:32.353Z,1.37
2018-09-14T20:07:00.054Z,1.60
2018-09-14T20:09:27.773Z,1.77
2018-09-14T20:11:55.457Z,1.57
2018-09-14T20:14:23.132Z,1.20
2018-09-14T20:16:50.891Z,1.30
2018-09-14T20:19:18.622Z,1.80
2018-09-14T20:21:46.307Z,1.43
2018-09-14T20:24:14.049Z,1.10
2018-09-14T20:26:41.743Z,1.30
2018-09-14T20:29:09.460Z,0.70
2018-09-14T20:31:37.155Z,1.07
2018-09-14T20:34:04.835Z,0.70
2018-09-14T20:36:32.517Z,0.70
2018-09-14T20:39:00.223Z,1.00
2018-09-14T20:41:27.896Z,1.07
2018-09-14T20:43:55.574Z,1.20
2018-09-14T20:46:23.253Z,0.80
2018-09-14T20:48:50.919Z,1.47
2018-09-14T20:51:18.632Z,1.37
2018-09-14T20:53:46.330Z,0.83
2018-09-14T20:56:14.004Z,1.00
2018-09-14T20:58:41.741Z,0.97
2018-09-14T21:01:09.448Z,1.23
2018-09-14T21:03:37.120Z,1.40
2018-09-14T21:06:04.803Z,1.53
2018-09-14T21:08:32.513Z,1.70
2018-09-14T21:11:00.207Z,1.27
2018-09-14T21:13:27.867Z,1.63
2018-09-14T21:15:55.535Z,1.50
2018-09-14T21:18:23.196Z,1.30
2018-09-14T21:20:50.919Z,1.27
2018-09-14T21:23:18.594Z,1.20
2018-09-14T21:25:46.248Z,1.50
2018-09-14T21:28:13.976Z,1.17
2018-09-14T21:30:41.671Z,1.27
2018-09-14T21:33:09.351Z,1.10
2018-09-14T21:35:37.028Z,1.10
2018-09-14T21:38:04.728Z,1.07
2018-09-14T21:40:32.450Z,1.50
2018-09-14T21:43:00.187Z,1.00
2018-09-14T21:45:27.960Z,1.10
2018-09-14T21:47:55.677Z,1.30
2018-09-14T21:50:23.380Z,1.10
2018-09-14T21:52:51.073Z,1.10
2018-09-14T21:55:18.766Z,1.40
2018-09-14T21:57:46.500Z,1.57
2018-09-14T22:00:19.708Z,1.90
2018-09-14T22:02:47.353Z,1.30
2018-09-14T22:05:15.085Z,1.97
2018-09-14T22:07:42.755Z,2.80
2018-09-14T22:10:10.416Z,2.87
2018-09-14T22:12:38.099Z,3.13
2018-09-14T22:15:05.897Z,3.40
2018-09-14T22:17:33.590Z,2.87
2018-09-14T22:20:01.303Z,3.87
2018-09-14T22:22:28.992Z,3.17
2018-09-14T22:24:56.903Z,3.33
2018-09-14T22:27:24.584Z,2.47
2018-09-14T22:29:52.281Z,3.37
2018-09-14T22:32:19.951Z,2.17
2018-09-14T22:34:47.633Z,3.67
2018-09-14T22:37:15.336Z,2.30
2018-09-14T22:39:43.040Z,2.87
2018-09-14T22:42:10.715Z,2.37
2018-09-14T22:44:38.388Z,2.50
2018-09-14T22:47:06.192Z,2.50
2018-09-14T22:49:33.860Z,2.30
2018-09-14T22:52:01.556Z,1.97
2018-09-14T22:54:29.226Z,3.10
2018-09-14T22:56:56.965Z,2.10
2018-09-14T22:59:24.675Z,2.60
2018-09-14T23:01:53.122Z,2.10
2018-09-14T23:04:20.962Z,2.93
2018-09-14T23:06:49.065Z,2.67
2018-09-14T23:09:16.753Z,2.17
2018-09-14T23:11:44.476Z,1.90
2018-09-14T23:14:12.152Z,2.83
2018-09-14T23:16:39.835Z,3.00
2018-09-14T23:19:07.532Z,2.20
2018-09-14T23:21:35.193Z,2.60
2018-09-14T23:24:02.878Z,2.40
2018-09-14T23:26:30.707Z,2.30
2018-09-14T23:28:58.364Z,3.43
2018-09-14T23:31:26.036Z,1.90
2018-09-14T23:33:53.732Z,2.73
2018-09-14T23:36:21.419Z,2.13
2018-09-14T23:38:49.106Z,2.43
2018-09-14T23:41:16.800Z,4.20
2018-09-14T23:43:44.488Z,2.40
2018-09-14T23:46:12.185Z,1.83
2018-09-14T23:48:39.875Z,2.00
2018-09-14T23:51:07.535Z,1.47
2018-09-14T23:53:35.195Z,2.03
2018-09-14T23:56:03.127Z,1.63
2018-09-14T23:58:30.858Z,1.70
